createdAt,value
2023-02-11T00:02:23.742Z,32.55
2023-02-11T00:04:51.798Z,39.88
2023-02-11T00:07:19.137Z,34.83
2023-02-11T00:09:46.585Z,36.53
2023-02-11T00:12:14.047Z,31.77
2023-02-11T00:14:41.238Z,32.45
2023-02-11T00:17:11.105Z,27.50
2023-02-11T00:19:40.836Z,35.75
2023-02-11T00:22:08.321Z,36.00
2023-02-11T00:24:37.134Z,29.60
2023-02-11T00:27:04.553Z,34.58
2023-02-11T00:29:31.695Z,34.65
2023-02-11T00:31:58.836Z,26.92
2023-02-11T00:34:27.493Z,32.43
2023-02-11T00:36:56.032Z,25.38
2023-02-11T00:39:23.162Z,34.13
2023-02-11T00:41:50.922Z,34.53
2023-02-11T00:44:18.405Z,34.90
2023-02-11T00:46:45.464Z,50.33
2023-02-11T00:49:12.695Z,37.45
2023-02-11T00:51:39.771Z,43.65
2023-02-11T00:54:07.453Z,56.50
2023-02-11T00:56:34.802Z,43.53
2023-02-11T00:59:01.849Z,47.23
2023-02-11T01:01:28.916Z,36.05
2023-02-11T01:03:56.000Z,42.38
2023-02-11T01:06:23.198Z,52.03
2023-02-11T01:08:50.873Z,51.75
2023-02-11T01:11:20.166Z,45.23
2023-02-11T01:13:48.641Z,47.15
2023-02-11T01:16:16.130Z,41.95
2023-02-11T01:18:44.597Z,42.42
2023-02-11T01:21:12.616Z,43.58
2023-02-11T01:23:39.777Z,52.43
2023-02-11T01:26:07.345Z,49.72
2023-02-11T01:28:35.235Z,57.38
2023-02-11T01:31:03.339Z,51.38
2023-02-11T01:33:30.879Z,55.67
2023-02-11T01:36:04.974Z,61.53
2023-02-11T01:38:32.865Z,40.78
2023-02-11T01:41:12.200Z,56.78
2023-02-11T01:43:42.024Z,49.95
2023-02-11T01:46:21.076Z,53.95
2023-02-11T01:48:53.522Z,55.20
2023-02-11T01:51:36.048Z,55.00
2023-02-11T01:54:23.997Z,48.35
2023-02-11T01:57:13.464Z,47.65
2023-02-11T01:59:46.377Z,50.55
2023-02-11T02:02:17.087Z,55.93
2023-02-11T02:04:57.800Z,48.30
2023-02-11T02:07:43.559Z,52.97
2023-02-11T02:10:19.299Z,45.80
2023-02-11T02:12:46.629Z,44.47
2023-02-11T02:15:27.569Z,40.67
2023-02-11T02:18:17.508Z,35.33
2023-02-11T02:21:13.240Z,29.02
2023-02-11T02:23:51.805Z,29.77
2023-02-11T02:26:45.611Z,36.25
2023-02-11T02:29:44.575Z,31.73
2023-02-11T02:32:33.077Z,40.47
2023-02-11T02:35:38.261Z,39.28
2023-02-11T02:38:28.601Z,37.45
2023-02-11T02:41:10.037Z,35.78
2023-02-11T02:43:40.814Z,33.00
2023-02-11T02:46:25.368Z,32.67
2023-02-11T02:48:53.658Z,32.42
2023-02-11T02:51:38.652Z,32.22
2023-02-11T02:54:27.596Z,26.30
2023-02-11T02:57:12.782Z,29.90
2023-02-11T02:59:39.731Z,20.73
2023-02-11T03:02:29.767Z,26.58
2023-02-11T03:05:06.084Z,36.42
2023-02-11T03:07:53.098Z,29.52
2023-02-11T03:10:25.282Z,29.87
2023-02-11T03:12:55.275Z,28.70
2023-02-11T03:15:25.375Z,27.92
2023-02-11T03:17:54.839Z,29.00
2023-02-11T03:20:23.756Z,31.88
2023-02-11T03:23:01.375Z,37.00
2023-02-11T03:25:33.787Z,33.78
2023-02-11T03:28:18.372Z,32.72
2023-02-11T03:30:56.313Z,30.92
2023-02-11T03:33:27.587Z,34.83
2023-02-11T03:36:03.651Z,27.23
2023-02-11T03:38:38.493Z,29.98
2023-02-11T03:41:08.396Z,33.80
2023-02-11T03:43:45.223Z,21.05
2023-02-11T03:46:14.770Z,26.88
2023-02-11T03:48:47.214Z,32.97
2023-02-11T03:51:15.227Z,30.98
2023-02-11T03:53:45.091Z,24.42
2023-02-11T03:56:19.731Z,23.95
2023-02-11T03:58:48.018Z,31.17
2023-02-11T04:01:15.635Z,25.53
2023-02-11T04:03:42.690Z,28.08
2023-02-11T04:06:09.904Z,25.58
2023-02-11T04:08:36.963Z,31.38
2023-02-11T04:11:03.992Z,25.38
2023-02-11T04:13:31.445Z,30.53
2023-02-11T04:15:58.505Z,20.92
2023-02-11T04:18:25.720Z,20.70
2023-02-11T04:20:52.794Z,24.65
2023-02-11T04:23:19.835Z,28.17
2023-02-11T04:25:46.851Z,28.77
2023-02-11T04:28:13.937Z,18.17
2023-02-11T04:30:41.214Z,19.92
2023-02-11T04:33:08.650Z,21.73
2023-02-11T04:35:35.872Z,27.40
2023-02-11T04:38:02.956Z,24.03
2023-02-11T04:40:30.209Z,16.05
2023-02-11T04:42:57.411Z,22.05
2023-02-11T04:45:24.544Z,26.00
2023-02-11T04:47:52.152Z,28.80
2023-02-11T04:50:22.145Z,26.13
2023-02-11T04:52:49.196Z,25.85
2023-02-11T04:55:16.443Z,19.17
2023-02-11T04:57:43.629Z,27.35
2023-02-11T05:00:11.514Z,22.40
2023-02-11T05:02:38.554Z,15.70
2023-02-11T05:05:06.096Z,22.65
2023-02-11T05:07:33.406Z,21.77
2023-02-11T05:10:00.868Z,18.38
2023-02-11T05:12:27.860Z,17.38
2023-02-11T05:14:54.942Z,17.00
2023-02-11T05:17:22.145Z,15.77
2023-02-11T05:19:49.174Z,15.07
2023-02-11T05:22:16.367Z,18.75
2023-02-11T05:24:43.416Z,15.23
2023-02-11T05:27:10.384Z,22.53
2023-02-11T05:29:37.479Z,22.42
2023-02-11T05:32:04.931Z,16.90
2023-02-11T05:34:31.968Z,16.48
2023-02-11T05:36:59.188Z,17.45
2023-02-11T05:39:26.201Z,13.43
2023-02-11T05:41:53.263Z,17.10
2023-02-11T05:44:20.498Z,12.77
2023-02-11T05:46:47.623Z,15.63
2023-02-11T05:49:14.812Z,12.98
2023-02-11T05:51:42.010Z,13.40
2023-02-11T05:54:09.071Z,11.13
2023-02-11T05:56:36.282Z,12.55
2023-02-11T05:59:03.551Z,11.13
2023-02-11T06:01:30.892Z,17.75
2023-02-11T06:03:57.974Z,11.33
2023-02-11T06:06:26.219Z,18.38
2023-02-11T06:08:53.244Z,15.63
2023-02-11T06:11:20.551Z,16.52
2023-02-11T06:13:47.698Z,7.95
2023-02-11T06:16:14.824Z,15.83
2023-02-11T06:18:41.857Z,12.40
2023-02-11T06:21:10.928Z,11.65
2023-02-11T06:23:38.576Z,11.35
2023-02-11T06:26:07.969Z,15.18
2023-02-11T06:28:36.229Z,14.20
2023-02-11T06:31:07.690Z,13.85
2023-02-11T06:33:35.604Z,15.05
2023-02-11T06:36:03.857Z,15.15
2023-02-11T06:38:30.875Z,13.35
2023-02-11T06:40:57.873Z,16.93
2023-02-11T06:43:24.923Z,15.73
2023-02-11T06:45:56.200Z,12.63
2023-02-11T06:48:23.890Z,16.67
2023-02-11T06:50:51.112Z,13.05
2023-02-11T06:53:18.453Z,10.77
2023-02-11T06:55:45.492Z,14.32
2023-02-11T06:58:12.473Z,13.07
2023-02-11T07:00:39.591Z,10.15
2023-02-11T07:03:06.690Z,14.52
2023-02-11T07:05:34.817Z,12.37
2023-02-11T07:08:02.059Z,13.88
2023-02-11T07:10:29.120Z,15.93
2023-02-11T07:12:58.644Z,14.43
2023-02-11T07:15:26.311Z,14.00
2023-02-11T07:17:53.347Z,11.53
2023-02-11T07:20:20.394Z,12.13
2023-02-11T07:22:47.510Z,14.60
2023-02-11T07:25:14.595Z,13.63
2023-02-11T07:27:41.669Z,19.17
2023-02-11T07:30:09.334Z,9.83
2023-02-11T07:32:36.397Z,16.48
2023-02-11T07:35:04.298Z,12.63
2023-02-11T07:37:33.410Z,11.68
2023-02-11T07:40:00.445Z,14.98
2023-02-11T07:42:27.511Z,11.53
2023-02-11T07:44:54.525Z,30.83
2023-02-11T07:47:21.663Z,19.20
2023-02-11T07:49:48.663Z,14.85
2023-02-11T07:52:16.049Z,15.45
2023-02-11T07:54:43.136Z,10.60
2023-02-11T07:57:10.336Z,9.45
2023-02-11T07:59:37.526Z,12.23
2023-02-11T08:02:04.661Z,12.85
2023-02-11T08:04:31.789Z,16.83
2023-02-11T08:06:59.343Z,13.87
2023-02-11T08:09:26.458Z,13.15
2023-02-11T08:11:53.665Z,11.85
2023-02-11T08:14:21.196Z,9.52
2023-02-11T08:16:48.644Z,15.77
2023-02-11T08:19:17.202Z,12.60
2023-02-11T08:21:44.411Z,10.10
2023-02-11T08:24:11.924Z,12.48
2023-02-11T08:26:39.065Z,15.20
2023-02-11T08:29:12.819Z,14.32
2023-02-11T08:31:46.710Z,21.17
2023-02-11T08:34:15.161Z,18.35
2023-02-11T08:36:43.765Z,19.30
2023-02-11T08:39:20.248Z,23.92
2023-02-11T08:41:53.207Z,20.95
2023-02-11T08:44:21.633Z,18.23
2023-02-11T08:46:49.734Z,14.55
2023-02-11T08:49:16.939Z,15.63
2023-02-11T08:51:44.429Z,14.75
2023-02-11T08:54:12.337Z,11.10
2023-02-11T08:56:39.658Z,16.10
2023-02-11T08:59:08.514Z,11.88
2023-02-11T09:01:36.566Z,11.52
2023-02-11T09:04:03.600Z,14.57
2023-02-11T09:06:41.600Z,11.57
2023-02-11T09:09:12.434Z,11.73
2023-02-11T09:11:41.565Z,14.10
2023-02-11T09:14:15.518Z,12.23
2023-02-11T09:16:43.462Z,16.15
2023-02-11T09:19:10.828Z,10.65
2023-02-11T09:21:38.057Z,18.70
2023-02-11T09:24:06.761Z,10.70
2023-02-11T09:26:36.604Z,11.93
2023-02-11T09:29:05.331Z,13.45
2023-02-11T09:31:33.860Z,16.05
2023-02-11T09:34:04.899Z,14.07
2023-02-11T09:36:34.595Z,15.75
2023-02-11T09:39:03.738Z,12.35
2023-02-11T09:41:40.387Z,12.23
2023-02-11T09:44:10.842Z,10.98
2023-02-11T09:46:41.939Z,15.93
2023-02-11T09:49:18.405Z,16.08
2023-02-11T09:52:30.237Z,16.25
2023-02-11T09:55:00.527Z,11.88
2023-02-11T09:57:35.323Z,9.85
2023-02-11T10:00:33.998Z,13.43
2023-02-11T10:03:39.353Z,10.23
2023-02-11T10:06:45.389Z,10.82
2023-02-11T10:10:06.280Z,8.77
2023-02-11T10:13:03.908Z,10.07
2023-02-11T10:15:38.694Z,19.73
2023-02-11T10:18:11.366Z,13.90
2023-02-11T10:20:39.851Z,9.95
2023-02-11T10:23:19.849Z,5.55
2023-02-11T10:25:54.752Z,8.10
2023-02-11T10:28:24.855Z,9.47
2023-02-11T10:30:59.656Z,7.53
2023-02-11T10:33:34.875Z,4.28
2023-02-11T10:36:02.041Z,6.07
2023-02-11T10:38:29.558Z,6.85
2023-02-11T10:40:57.897Z,15.63
2023-02-11T10:43:27.773Z,9.27
2023-02-11T11:02:04.621Z,17.45
2023-02-11T11:04:34.135Z,11.82
2023-02-11T11:07:21.600Z,16.55
2023-02-11T11:09:56.905Z,15.23
2023-02-11T11:12:35.364Z,17.80
2023-02-11T11:15:10.522Z,18.92
2023-02-11T11:17:40.904Z,12.10
2023-02-11T11:20:24.474Z,9.77
2023-02-11T11:23:07.505Z,8.05
2023-02-11T11:25:37.598Z,6.90
2023-02-11T11:28:05.128Z,8.45
2023-02-11T11:30:39.571Z,11.25
2023-02-11T11:33:21.168Z,9.77
2023-02-11T11:36:17.498Z,9.63
2023-02-11T11:38:49.664Z,7.47
2023-02-11T11:41:31.914Z,5.80
2023-02-11T11:44:05.288Z,7.35
2023-02-11T11:46:38.417Z,6.80
2023-02-11T11:49:31.199Z,5.93
2023-02-11T11:52:18.326Z,7.30
2023-02-11T11:54:52.264Z,4.47
2023-02-11T11:57:24.688Z,6.03
2023-02-11T11:59:52.338Z,5.70
2023-02-11T12:02:48.073Z,4.05
2023-02-11T12:05:31.881Z,8.83
2023-02-11T12:08:17.792Z,5.65
2023-02-11T12:11:03.464Z,4.85
2023-02-11T12:13:40.820Z,8.68
2023-02-11T12:16:16.935Z,8.18
2023-02-11T12:19:32.222Z,5.80
2023-02-11T12:22:12.822Z,7.25
2023-02-11T12:25:18.300Z,8.30
2023-02-11T12:27:54.480Z,5.32
2023-02-11T12:30:46.565Z,6.45
2023-02-11T12:33:32.201Z,6.60
2023-02-11T12:36:08.363Z,5.35
2023-02-11T12:39:13.459Z,6.20
2023-02-11T12:42:23.320Z,7.00
2023-02-11T12:45:17.055Z,5.40
2023-02-11T12:48:13.541Z,8.60
2023-02-11T12:51:06.528Z,7.47
2023-02-11T12:54:31.499Z,7.00
2023-02-11T12:57:17.670Z,6.03
2023-02-11T12:59:51.969Z,4.88
2023-02-11T13:02:18.991Z,5.20
2023-02-11T13:04:57.684Z,6.13
2023-02-11T13:07:27.717Z,4.78
2023-02-11T13:10:19.713Z,5.93
2023-02-11T13:13:09.205Z,5.00
2023-02-11T13:15:36.811Z,6.23
2023-02-11T13:18:16.305Z,7.00
2023-02-11T13:20:52.153Z,5.88
2023-02-11T13:24:21.192Z,6.38
2023-02-11T13:27:12.210Z,5.03
2023-02-11T13:30:39.463Z,3.50
2023-02-11T13:33:49.823Z,6.10
2023-02-11T13:36:26.302Z,6.43
2023-02-11T13:39:22.194Z,4.20
2023-02-11T13:41:53.154Z,5.32
2023-02-11T13:44:28.651Z,6.13
2023-02-11T13:47:13.081Z,5.68
2023-02-11T13:49:56.240Z,4.20
2023-02-11T13:52:34.322Z,7.75
2023-02-11T13:55:36.575Z,5.63
2023-02-11T13:58:19.341Z,4.27
2023-02-11T14:00:55.614Z,6.28
2023-02-11T14:03:48.077Z,6.05
2023-02-11T14:06:38.609Z,3.95
2023-02-11T14:09:22.590Z,3.92
2023-02-11T14:11:54.256Z,6.47
2023-02-11T14:14:34.778Z,6.63
2023-02-11T14:17:11.876Z,4.80
2023-02-11T14:19:49.070Z,5.10
2023-02-11T14:22:41.280Z,6.55
2023-02-11T14:25:25.624Z,5.73
2023-02-11T14:28:17.278Z,4.57
2023-02-11T14:31:03.499Z,5.20
2023-02-11T14:33:52.388Z,4.38
2023-02-11T14:36:46.637Z,5.18
2023-02-11T14:39:25.995Z,10.87
2023-02-11T14:41:58.349Z,4.88
2023-02-11T14:44:28.731Z,4.70
2023-02-11T14:46:56.704Z,6.32
2023-02-11T14:49:44.574Z,3.45
2023-02-11T14:52:37.362Z,7.20
2023-02-11T14:55:38.874Z,5.30
2023-02-11T14:58:17.831Z,4.93
2023-02-11T15:00:53.552Z,6.30
2023-02-11T15:03:38.802Z,10.98
2023-02-11T15:06:14.958Z,6.40
2023-02-11T15:08:50.950Z,6.45
2023-02-11T15:11:36.579Z,6.90
2023-02-11T15:14:29.684Z,8.52
2023-02-11T15:17:11.280Z,7.82
2023-02-11T15:19:47.455Z,7.73
2023-02-11T15:22:22.310Z,5.05
2023-02-11T15:25:23.719Z,6.80
2023-02-11T15:27:57.426Z,4.07
2023-02-11T15:30:24.996Z,4.38
2023-02-11T15:33:03.338Z,5.20
2023-02-11T15:35:38.821Z,4.10
2023-02-11T15:38:06.653Z,6.05
2023-02-11T15:40:35.890Z,3.75
2023-02-11T15:43:10.770Z,9.13
2023-02-11T15:45:42.998Z,4.00
2023-02-11T15:48:18.800Z,4.40
2023-02-11T15:50:55.143Z,4.95
2023-02-11T15:53:40.853Z,7.07
2023-02-11T15:56:18.053Z,3.53
2023-02-11T15:58:48.597Z,5.70
2023-02-11T16:01:15.960Z,4.38
2023-02-11T16:03:44.146Z,4.57
2023-02-11T16:06:27.945Z,5.50
2023-02-11T16:09:22.765Z,5.60
2023-02-11T16:11:49.642Z,4.33
2023-02-11T16:14:31.301Z,10.50
2023-02-11T16:17:23.274Z,4.78
2023-02-11T16:19:53.189Z,6.55
2023-02-11T16:22:30.532Z,4.15
2023-02-11T16:25:00.128Z,5.07
2023-02-11T16:27:41.271Z,4.10
2023-02-11T16:30:28.873Z,8.70
2023-02-11T16:32:56.030Z,7.85
2023-02-11T16:35:23.030Z,5.53
2023-02-11T16:37:50.056Z,6.87
2023-02-11T16:40:17.366Z,6.57
2023-02-11T16:42:44.414Z,8.70
2023-02-11T16:45:12.205Z,10.80
2023-02-11T16:47:47.788Z,6.18
2023-02-11T16:50:25.798Z,13.23
2023-02-11T16:52:53.009Z,10.65
2023-02-11T16:55:22.067Z,9.15
2023-02-11T16:57:49.638Z,4.80
2023-02-11T17:00:18.015Z,9.50
2023-02-11T17:02:45.309Z,8.97
2023-02-11T17:05:23.015Z,6.85
2023-02-11T17:07:50.274Z,4.55
2023-02-11T17:10:20.709Z,8.23
2023-02-11T17:12:49.412Z,6.78
2023-02-11T17:15:16.922Z,8.67
2023-02-11T17:17:44.706Z,10.20
2023-02-11T17:20:14.148Z,10.18
2023-02-11T17:22:41.760Z,12.35
2023-02-11T17:25:09.365Z,9.10
2023-02-11T17:27:36.733Z,8.30
2023-02-11T17:30:04.898Z,8.82
2023-02-11T17:32:31.911Z,10.23
2023-02-11T17:34:59.336Z,11.45
2023-02-11T17:37:26.377Z,12.35
2023-02-11T17:39:53.612Z,14.70
2023-02-11T17:42:21.110Z,9.45
2023-02-11T17:44:48.116Z,13.40
2023-02-11T17:47:15.163Z,6.75
2023-02-11T17:49:43.540Z,12.82
2023-02-11T17:52:10.805Z,7.27
2023-02-11T17:54:39.683Z,10.52
2023-02-11T17:57:07.184Z,7.28
2023-02-11T17:59:35.701Z,8.85
2023-02-11T18:02:04.601Z,12.45
2023-02-11T18:04:32.676Z,7.73
2023-02-11T18:07:00.138Z,9.23
2023-02-11T18:09:27.588Z,9.52
2023-02-11T18:11:55.073Z,11.63
2023-02-11T18:14:23.377Z,11.07
2023-02-11T18:16:53.672Z,12.20
